Time;durP1;ratioP1;P1;durP2;ratioP2;P2;SDS_P1;SDS_P2;PMS_P1;PMS_P2;Temp;Humidity;BMP_temperature;BMP_pressure;BME280_temperature;BME280_humidity;BME280_pressure;Samples;Min_cycle;Max_cycle;Signal;HPM_P1;HPM_P2
2022/11/06 00:00:37;;;;;;;8.45;4.00;;;9.10;99.90;;;;;;5082227;28;20036;-74
2022/11/06 00:03:03;;;;;;;9.45;3.95;;;9.10;99.90;;;;;;5061914;28;20089;-73
2022/11/06 00:08:15;;;;;;;11.57;4.18;;;9.00;99.90;;;;;;5079365;28;20050;-73
2022/11/06 00:10:41;;;;;;;8.75;4.18;;;8.80;99.90;;;;;;5061954;28;20537;-73
2022/11/06 00:13:06;;;;;;;7.93;4.00;;;8.90;99.90;;;;;;5079813;28;20044;-73
2022/11/06 00:15:32;;;;;;;10.02;4.80;;;8.90;99.90;;;;;;5080598;28;20044;-73
2022/11/06 00:17:58;;;;;;;10.60;4.00;;;8.80;99.90;;;;;;5080805;28;20036;-74
2022/11/06 00:20:24;;;;;;;7.15;4.07;;;8.90;99.90;;;;;;5083005;28;20096;-74
2022/11/06 00:22:49;;;;;;;10.07;3.95;;;8.90;99.90;;;;;;5061546;28;20130;-74
2022/11/06 00:25:15;;;;;;;9.75;3.75;;;9.00;99.90;;;;;;5065825;28;20467;-73
2022/11/06 00:27:42;;;;;;;9.27;4.18;;;8.90;99.90;;;;;;5062544;28;20171;-74
2022/11/06 00:30:10;;;;;;;8.02;3.78;;;8.90;99.90;;;;;;5077793;28;20096;-73
2022/11/06 00:32:36;;;;;;;11.27;4.00;;;9.00;99.90;;;;;;5081107;28;20047;-74
2022/11/06 00:35:02;;;;;;;8.35;3.58;;;8.90;99.90;;;;;;5081031;28;20123;-72
2022/11/06 00:37:28;;;;;;;7.05;3.58;;;8.80;99.90;;;;;;5084973;28;20035;-72
2022/11/06 00:39:53;;;;;;;7.70;3.75;;;8.90;99.90;;;;;;5061572;28;20441;-72
2022/11/06 00:42:19;;;;;;;7.40;3.20;;;8.80;99.90;;;;;;5083453;28;20093;-74
2022/11/06 00:44:44;;;;;;;7.88;3.35;;;8.80;99.90;;;;;;5079624;28;20047;-74
2022/11/06 00:47:11;;;;;;;6.60;3.47;;;8.80;99.90;;;;;;5079610;28;20313;-74
2022/11/06 00:49:37;;;;;;;8.18;3.33;;;8.80;99.90;;;;;;5079888;28;20490;-74
2022/11/06 00:52:03;;;;;;;9.85;3.42;;;8.70;99.90;;;;;;5062418;28;20509;-74
2022/11/06 00:54:28;;;;;;;7.95;3.38;;;8.80;99.90;;;;;;5082104;28;20036;-74
2022/11/06 00:56:54;;;;;;;10.43;3.35;;;8.80;99.90;;;;;;5079355;28;20127;-74
2022/11/06 00:59:19;;;;;;;9.90;3.40;;;8.80;99.90;;;;;;5077382;28;20120;-74
2022/11/06 01:01:45;;;;;;;6.25;3.15;;;8.80;99.90;;;;;;5075616;28;20032;-74
2022/11/06 01:04:17;;;;;;;11.45;3.85;;;8.80;99.90;;;;;;5078581;28;20077;-74
2022/11/06 01:06:45;;;;;;;8.65;3.13;;;8.80;99.90;;;;;;5061471;28;20115;-72
2022/11/06 01:09:14;;;;;;;7.70;3.47;;;8.80;99.90;;;;;;5077892;28;20062;-73
2022/11/06 01:11:45;;;;;;;9.50;3.50;;;8.80;99.90;;;;;;5079710;28;20081;-73
2022/11/06 01:14:13;;;;;;;4.68;2.95;;;8.80;99.90;;;;;;5078039;28;20490;-72
2022/11/06 01:16:39;;;;;;;10.30;3.10;;;8.80;99.90;;;;;;5061960;28;20259;-74
2022/11/06 01:19:05;;;;;;;5.72;3.00;;;8.80;99.90;;;;;;5078555;28;20559;-73
2022/11/06 01:21:34;;;;;;;8.38;3.17;;;8.70;99.90;;;;;;5074808;28;20030;-74
2022/11/06 01:24:09;;;;;;;6.55;2.83;;;8.80;99.90;;;;;;5078762;28;20032;-73
2022/11/06 01:26:36;;;;;;;9.88;3.28;;;8.60;99.90;;;;;;5061145;28;20034;-74
2022/11/06 01:29:02;;;;;;;12.30;3.03;;;8.60;99.90;;;;;;5059191;28;20460;-73
2022/11/06 01:31:30;;;;;;;8.55;3.10;;;8.60;99.90;;;;;;5079523;28;20032;-73
2022/11/06 01:33:58;;;;;;;9.02;3.35;;;8.60;99.90;;;;;;5078181;28;20060;-74
2022/11/06 01:36:25;;;;;;;10.45;3.40;;;8.60;99.90;;;;;;5076897;28;20467;-72
2022/11/06 01:38:52;;;;;;;9.25;3.38;;;8.70;99.90;;;;;;5058090;28;20024;-74
2022/11/06 01:41:21;;;;;;;7.97;3.42;;;8.60;99.90;;;;;;5075858;28;20524;-74
2022/11/06 01:43:49;;;;;;;5.97;3.22;;;8.80;99.90;;;;;;5077408;28;20638;-74
2022/11/06 01:46:19;;;;;;;6.32;3.38;;;8.70;99.90;;;;;;5075660;28;20047;-73
2022/11/06 01:48:53;;;;;;;7.40;3.33;;;8.60;99.90;;;;;;5072583;28;20112;-72
2022/11/06 01:51:21;;;;;;;6.65;3.08;;;8.70;99.90;;;;;;5060090;28;20526;-73
2022/11/06 01:53:47;;;;;;;7.72;3.38;;;8.70;99.90;;;;;;5076962;28;20032;-75
2022/11/06 01:56:14;;;;;;;7.80;3.08;;;8.70;99.90;;;;;;5077798;28;20632;-74
2022/11/06 01:58:42;;;;;;;10.57;3.55;;;8.60;99.90;;;;;;5078194;28;20467;-72
2022/11/06 02:01:08;;;;;;;5.82;3.35;;;8.70;99.90;;;;;;5077385;28;20052;-72
2022/11/06 02:03:35;;;;;;;8.43;2.95;;;8.70;99.90;;;;;;5059502;28;20112;-72
2022/11/06 02:06:02;;;;;;;8.45;3.03;;;8.70;99.90;;;;;;5078354;28;20036;-74
2022/11/06 02:08:28;;;;;;;10.15;3.03;;;8.80;99.90;;;;;;5075869;28;20351;-73
2022/11/06 02:10:54;;;;;;;7.93;3.03;;;8.80;99.90;;;;;;5077787;28;20028;-72
2022/11/06 02:14:08;;;;;;;7.03;2.50;;;8.80;99.90;;;;;;5077969;28;20122;-74
2022/11/06 02:16:50;;;;;;;5.40;3.08;;;8.80;99.90;;;;;;5012647;28;20030;-73
2022/11/06 02:20:00;;;;;;;8.15;2.92;;;8.90;99.90;;;;;;5012332;28;20539;-73
2022/11/06 02:23:03;;;;;;;9.48;3.03;;;8.90;99.90;;;;;;5072020;28;20051;-75
2022/11/06 02:25:34;;;;;;;9.73;3.10;;;8.80;99.90;;;;;;5078142;28;20031;-74
2022/11/06 02:28:13;;;;;;;7.28;2.80;;;8.80;99.90;;;;;;5076778;28;20027;-73
2022/11/06 02:30:45;;;;;;;7.85;3.17;;;8.80;99.90;;;;;;5060735;28;20024;-73
2022/11/06 02:33:20;;;;;;;7.00;2.75;;;8.80;99.90;;;;;;5079847;28;20489;-73
2022/11/06 02:35:52;;;;;;;14.63;3.30;;;8.70;99.90;;;;;;5079603;28;20692;-73
2022/11/06 02:38:27;;;;;;;9.30;2.97;;;8.80;99.90;;;;;;5055849;28;20043;-72
2022/11/06 02:40:59;;;;;;;7.13;2.92;;;8.90;99.90;;;;;;5076558;28;20028;-73
2022/11/06 02:43:38;;;;;;;8.93;2.42;;;9.00;99.90;;;;;;5079589;28;20059;-74
2022/11/06 02:46:15;;;;;;;6.57;2.58;;;9.00;99.90;;;;;;5074251;28;20029;-72
2022/11/06 02:48:45;;;;;;;7.15;2.70;;;9.00;99.90;;;;;;5078989;28;20039;-74
2022/11/06 02:51:14;;;;;;;7.43;2.83;;;9.00;99.90;;;;;;5076088;28;20034;-74
2022/11/06 02:53:42;;;;;;;7.38;2.88;;;9.10;99.90;;;;;;5076734;28;20020;-72
2022/11/06 02:56:13;;;;;;;8.43;2.88;;;9.10;99.90;;;;;;5071680;28;20189;-74
2022/11/06 02:58:45;;;;;;;7.88;2.55;;;9.10;99.90;;;;;;5058989;28;20040;-73
2022/11/06 03:01:19;;;;;;;10.38;2.72;;;9.10;99.90;;;;;;5060689;28;20048;-73
2022/11/06 03:03:50;;;;;;;8.13;2.50;;;9.00;99.90;;;;;;5082159;28;20044;-75
2022/11/06 03:06:34;;;;;;;7.53;2.67;;;9.10;99.90;;;;;;5080205;28;20150;-74
2022/11/06 03:09:11;;;;;;;7.18;2.38;;;9.10;99.90;;;;;;5080925;28;20440;-75
2022/11/06 03:11:40;;;;;;;9.10;2.58;;;9.10;99.90;;;;;;5080671;28;20032;-74
2022/11/06 03:14:18;;;;;;;11.23;2.70;;;9.10;99.90;;;;;;5080567;28;20527;-73
2022/11/06 03:17:12;;;;;;;8.13;2.40;;;9.10;99.90;;;;;;5081068;28;20375;-75
2022/11/06 03:19:47;;;;;;;;;;;9.20;99.90;;;;;;5081232;28;20032;-72
2022/11/06 03:22:39;;;;;;;7.35;2.50;;;9.10;99.90;;;;;;5082114;28;20289;-75
2022/11/06 03:25:23;;;;;;;7.75;2.38;;;9.10;99.90;;;;;;5084728;28;20138;-75
2022/11/06 03:28:04;;;;;;;5.68;1.85;;;9.10;99.90;;;;;;5083731;28;20616;-75
2022/11/06 03:30:33;;;;;;;9.05;2.13;;;9.20;99.90;;;;;;5081355;28;20040;-75
2022/11/06 03:33:16;;;;;;;6.82;2.30;;;9.30;99.90;;;;;;5065006;28;20039;-75
2022/11/06 03:35:57;;;;;;;8.45;2.13;;;9.30;99.90;;;;;;5076303;28;20509;-75
2022/11/06 03:38:43;;;;;;;11.73;2.90;;;9.00;99.90;;;;;;5077620;28;20106;-72
2022/11/06 03:41:18;;;;;;;6.97;2.25;;;9.00;99.90;;;;;;5061938;28;20036;-75
2022/11/06 03:43:46;;;;;;;8.57;2.25;;;9.00;99.90;;;;;;5080318;28;20133;-73
2022/11/06 03:46:18;;;;;;;9.23;2.33;;;9.10;99.90;;;;;;5077087;28;20050;-74
2022/11/06 03:48:48;;;;;;;8.27;2.25;;;9.10;99.90;;;;;;5078350;28;20265;-75
2022/11/06 03:51:39;;;;;;;5.80;2.05;;;9.20;99.90;;;;;;5082073;28;20024;-75
2022/11/06 03:54:41;;;;;;;7.63;2.40;;;9.10;99.90;;;;;;5060160;28;20032;-74
2022/11/06 03:57:14;;;;;;;8.32;2.63;;;9.20;99.90;;;;;;5022739;28;20032;-75
2022/11/06 03:59:49;;;;;;;7.28;2.67;;;9.20;99.90;;;;;;5081358;28;20550;-73
2022/11/06 04:02:17;;;;;;;11.32;2.72;;;9.10;99.90;;;;;;5081908;28;20432;-73
2022/11/06 04:04:48;;;;;;;7.35;1.95;;;9.10;99.90;;;;;;5080864;28;20089;-75
2022/11/06 04:07:18;;;;;;;6.93;2.67;;;9.10;99.90;;;;;;5056718;28;20048;-74
2022/11/06 04:15:29;;;;;;;8.02;2.08;;;9.10;99.90;;;;;;5052977;28;20048;-74
2022/11/06 04:17:54;;;;;;;5.78;2.10;;;9.10;99.90;;;;;;5082583;28;20031;-73
2022/11/06 04:23:33;;;;;;;5.60;2.13;;;9.30;99.90;;;;;;5079734;28;20035;-72
2022/11/06 04:26:36;;;;;;;6.45;2.03;;;9.20;99.90;;;;;;5063283;28;20189;-73
2022/11/06 04:29:19;;;;;;;10.18;2.30;;;9.10;99.90;;;;;;5059593;28;20036;-72
2022/11/06 04:32:10;;;;;;;7.78;2.20;;;9.30;99.90;;;;;;5058619;28;20115;-74
2022/11/06 04:34:47;;;;;;;5.97;1.90;;;9.30;99.90;;;;;;5061353;28;20059;-73
2022/11/06 04:37:36;;;;;;;10.55;2.17;;;9.30;99.90;;;;;;5076326;28;20454;-72
2022/11/06 04:40:16;;;;;;;12.38;2.67;;;9.30;99.90;;;;;;5073377;28;20029;-74
2022/11/06 04:42:53;;;;;;;4.90;1.88;;;9.10;99.90;;;;;;5062145;28;20455;-73
2022/11/06 04:45:35;;;;;;;7.63;2.40;;;9.20;99.90;;;;;;5082710;28;20024;-73
2022/11/06 04:48:03;;;;;;;7.57;2.42;;;9.30;99.90;;;;;;5079846;28;20585;-72
2022/11/06 04:50:32;;;;;;;5.53;1.85;;;9.30;99.90;;;;;;5058175;28;20059;-73
2022/11/06 04:52:59;;;;;;;9.82;2.38;;;9.20;99.90;;;;;;5079660;28;20097;-74
2022/11/06 04:55:27;;;;;;;8.45;2.20;;;9.30;99.90;;;;;;5078633;28;20031;-73
2022/11/06 04:57:53;;;;;;;5.25;2.03;;;9.30;99.90;;;;;;5052249;28;20035;-73
2022/11/06 05:00:19;;;;;;;8.77;2.38;;;9.10;99.90;;;;;;5078028;28;20028;-73
2022/11/06 05:02:44;;;;;;;7.40;2.15;;;9.10;99.90;;;;;;5076234;28;20111;-72
2022/11/06 05:05:10;;;;;;;6.57;2.20;;;9.00;99.90;;;;;;5060951;28;20156;-75
2022/11/06 05:07:35;;;;;;;9.20;2.55;;;9.10;99.90;;;;;;5080338;28;20052;-73
2022/11/06 05:10:01;;;;;;;8.43;2.35;;;9.10;99.90;;;;;;5079124;28;20032;-74
2022/11/06 05:12:27;;;;;;;10.35;2.25;;;9.00;99.90;;;;;;5079923;28;20072;-73
2022/11/06 05:14:52;;;;;;;7.38;2.30;;;8.80;99.90;;;;;;5059911;28;20036;-74
2022/11/06 05:17:18;;;;;;;11.48;2.75;;;8.80;99.90;;;;;;5056156;28;20043;-75
2022/11/06 05:19:43;;;;;;;7.18;2.13;;;8.80;99.90;;;;;;5079478;28;20131;-72
2022/11/06 05:24:53;;;;;;;6.60;2.00;;;8.90;99.90;;;;;;5078463;28;20474;-73
2022/11/06 05:27:19;;;;;;;10.10;2.33;;;8.70;99.90;;;;;;5080444;28;20036;-73
2022/11/06 05:29:44;;;;;;;8.63;2.03;;;8.70;99.90;;;;;;5078996;28;20028;-75
2022/11/06 05:32:10;;;;;;;7.00;2.17;;;8.60;99.90;;;;;;5077434;28;20138;-71
2022/11/06 05:34:36;;;;;;;7.30;2.35;;;8.60;99.90;;;;;;5078561;28;20044;-73
2022/11/06 05:37:01;;;;;;;7.95;2.00;;;8.60;99.90;;;;;;5079009;28;20125;-73
2022/11/06 05:39:27;;;;;;;7.57;2.55;;;8.60;99.90;;;;;;5078918;28;20067;-72
2022/11/06 05:41:52;;;;;;;7.88;2.53;;;8.60;99.90;;;;;;5080437;28;20024;-73
2022/11/06 05:44:18;;;;;;;11.40;2.60;;;8.60;99.90;;;;;;5080824;28;20039;-73
2022/11/06 05:46:43;;;;;;;6.68;2.30;;;8.70;99.90;;;;;;5064647;28;20094;-71
2022/11/06 05:49:09;;;;;;;9.07;2.53;;;8.70;99.90;;;;;;5059090;28;20046;-72
2022/11/06 05:51:35;;;;;;;8.13;2.33;;;8.70;99.90;;;;;;5057607;28;20127;-74
2022/11/06 05:54:00;;;;;;;8.48;2.33;;;8.70;99.90;;;;;;5080322;28;20032;-71
2022/11/06 05:56:26;;;;;;;5.57;1.92;;;8.60;99.90;;;;;;5055537;28;20050;-71
2022/11/06 05:58:52;;;;;;;8.68;2.30;;;8.60;99.90;;;;;;5077051;28;20131;-73
2022/11/06 06:01:17;;;;;;;6.15;2.03;;;8.60;99.90;;;;;;5078955;28;20040;-73
2022/11/06 06:03:43;;;;;;;7.47;2.20;;;8.60;99.90;;;;;;5059232;28;20691;-70
2022/11/06 06:06:08;;;;;;;7.53;2.20;;;8.70;99.90;;;;;;5081237;28;20024;-72
2022/11/06 06:08:34;;;;;;;6.45;2.45;;;8.70;99.90;;;;;;5084423;28;20032;-74
2022/11/06 06:11:04;;;;;;;5.88;2.28;;;8.70;99.90;;;;;;5061406;28;20065;-73
2022/11/06 06:13:29;;;;;;;6.20;1.80;;;8.70;99.90;;;;;;5063646;28;20032;-73
2022/11/06 06:16:00;;;;;;;8.65;2.25;;;8.60;99.90;;;;;;5085587;28;20031;-74
2022/11/06 06:18:25;;;;;;;6.68;2.05;;;8.60;99.90;;;;;;5082025;28;20866;-72
2022/11/06 06:20:51;;;;;;;7.40;2.33;;;8.70;99.90;;;;;;5086009;28;20385;-73
2022/11/06 06:23:17;;;;;;;8.57;2.78;;;8.70;99.90;;;;;;5081321;28;20152;-71
2022/11/06 06:25:42;;;;;;;7.53;2.28;;;8.70;99.90;;;;;;5061749;28;20386;-73
2022/11/06 06:28:08;;;;;;;7.63;2.28;;;8.70;99.90;;;;;;5077828;28;20462;-72
2022/11/06 06:30:34;;;;;;;6.68;2.15;;;8.80;99.90;;;;;;5079134;28;20051;-74
2022/11/06 06:33:04;;;;;;;6.13;2.13;;;8.80;99.90;;;;;;5080508;28;20039;-72
2022/11/06 06:35:30;;;;;;;10.07;2.42;;;8.70;99.90;;;;;;5077794;28;20054;-73
2022/11/06 06:37:55;;;;;;;7.88;2.38;;;8.80;99.90;;;;;;5060569;28;20542;-74
2022/11/06 06:40:22;;;;;;;5.68;2.20;;;8.80;99.90;;;;;;5079115;28;20574;-72
2022/11/06 06:42:47;;;;;;;8.00;2.28;;;8.80;99.90;;;;;;5080221;28;20486;-71
2022/11/06 06:45:13;;;;;;;9.20;2.20;;;8.70;99.90;;;;;;5075602;28;20032;-74
2022/11/06 06:47:39;;;;;;;8.18;2.53;;;8.70;99.90;;;;;;5076744;28;20050;-74
2022/11/06 06:50:05;;;;;;;11.20;2.30;;;8.80;99.90;;;;;;5059236;28;20060;-73
2022/11/06 06:52:30;;;;;;;9.13;2.13;;;8.80;99.90;;;;;;5059395;28;20039;-73
2022/11/06 06:54:56;;;;;;;10.30;2.10;;;8.90;99.90;;;;;;5084066;28;20040;-74
2022/11/06 06:57:21;;;;;;;5.03;1.85;;;8.80;99.90;;;;;;5059218;28;20036;-73
2022/11/06 06:59:47;;;;;;;10.73;2.70;;;8.80;99.90;;;;;;5081682;28;20139;-73
2022/11/06 07:02:12;;;;;;;9.10;2.33;;;8.80;99.90;;;;;;5078442;28;20050;-74
2022/11/06 07:04:38;;;;;;;4.78;1.77;;;8.70;99.90;;;;;;5077982;28;20070;-75
2022/11/06 07:07:04;;;;;;;9.52;2.25;;;8.70;99.90;;;;;;5080261;28;20036;-75
2022/11/06 07:09:30;;;;;;;6.28;2.40;;;8.70;99.90;;;;;;5057215;28;20041;-74
2022/11/06 07:11:56;;;;;;;5.70;2.20;;;8.80;99.90;;;;;;5060049;28;20128;-74
2022/11/06 07:14:22;;;;;;;9.98;2.33;;;8.80;99.90;;;;;;5077447;28;20534;-73
2022/11/06 07:16:47;;;;;;;6.63;2.08;;;8.80;99.90;;;;;;5077441;28;20053;-73
2022/11/06 07:19:13;;;;;;;8.32;2.50;;;8.90;99.90;;;;;;5076997;28;20024;-73
2022/11/06 07:21:38;;;;;;;6.85;2.13;;;8.90;99.90;;;;;;5081622;28;20036;-75
2022/11/06 07:24:04;;;;;;;8.48;2.33;;;8.90;99.90;;;;;;5081883;28;20445;-73
2022/11/06 07:26:30;;;;;;;8.98;2.17;;;8.90;99.90;;;;;;5058532;28;20598;-72
2022/11/06 07:28:55;;;;;;;7.97;2.25;;;9.00;99.90;;;;;;5082896;28;20040;-73
2022/11/06 07:31:22;;;;;;;7.00;2.20;;;9.00;99.90;;;;;;5082525;28;20039;-73
2022/11/06 07:33:47;;;;;;;6.05;2.10;;;9.10;99.90;;;;;;5077772;28;20028;-72
2022/11/06 07:36:13;;;;;;;6.22;1.95;;;9.20;99.90;;;;;;5076598;28;20020;-74
2022/11/06 07:38:41;;;;;;;9.57;2.60;;;9.10;99.90;;;;;;5058487;28;20040;-72
2022/11/06 07:41:09;;;;;;;8.27;2.45;;;9.20;99.90;;;;;;5058406;28;20127;-73
2022/11/06 07:43:35;;;;;;;6.65;2.47;;;9.20;99.90;;;;;;5081334;28;20063;-73
2022/11/06 07:46:03;;;;;;;4.93;1.83;;;9.20;99.90;;;;;;5064963;28;20585;-74
2022/11/06 07:48:30;;;;;;;7.65;2.15;;;9.30;99.90;;;;;;5083375;28;20318;-72
2022/11/06 07:50:56;;;;;;;4.45;2.03;;;9.40;99.90;;;;;;5082542;28;20559;-72
2022/11/06 07:53:22;;;;;;;6.78;2.33;;;9.40;99.90;;;;;;5083413;28;20349;-71
2022/11/06 07:55:52;;;;;;;9.80;2.33;;;9.40;99.90;;;;;;5061015;28;20097;-71
2022/11/06 07:58:18;;;;;;;8.55;2.53;;;9.50;99.90;;;;;;5081959;28;20040;-66
2022/11/06 08:00:57;;;;;;;7.25;1.98;;;9.50;99.90;;;;;;5058689;28;20024;-66
2022/11/06 08:03:24;;;;;;;7.65;2.33;;;9.50;99.90;;;;;;5078608;28;20465;-66
2022/11/06 08:05:50;;;;;;;7.13;2.22;;;9.50;99.90;;;;;;5085533;28;20028;-66
2022/11/06 08:08:16;;;;;;;10.27;2.33;;;9.50;99.90;;;;;;5063205;28;20032;-66
2022/11/06 08:10:46;;;;;;;7.35;2.20;;;9.50;99.90;;;;;;5080492;28;20047;-66
2022/11/06 08:13:14;;;;;;;11.88;7.60;;;9.60;99.90;;;;;;5083716;28;20032;-61
2022/11/06 08:15:41;;;;;;;9.82;2.60;;;9.60;99.90;;;;;;5080409;28;20071;-66
2022/11/06 08:18:08;;;;;;;4.78;1.85;;;9.70;99.90;;;;;;5079454;28;20113;-66
2022/11/06 08:20:35;;;;;;;9.27;2.20;;;9.90;99.90;;;;;;5080012;28;20052;-66
2022/11/06 08:23:02;;;;;;;8.75;2.08;;;9.90;99.90;;;;;;5082692;28;20024;-66
2022/11/06 08:25:29;;;;;;;11.05;2.47;;;10.00;99.90;;;;;;5082228;28;20029;-66
2022/11/06 08:27:59;;;;;;;7.70;2.03;;;10.20;99.90;;;;;;5080002;28;20513;-66
2022/11/06 08:30:26;;;;;;;8.98;2.25;;;10.20;99.90;;;;;;5080255;28;20036;-66
2022/11/06 08:32:52;;;;;;;7.95;2.00;;;10.40;99.90;;;;;;5076018;28;20124;-66
2022/11/06 08:35:18;;;;;;;8.90;2.05;;;10.50;99.90;;;;;;5080547;28;20115;-66
2022/11/06 08:37:44;;;;;;;10.68;2.40;;;10.50;99.90;;;;;;5082722;28;20507;-66
2022/11/06 08:40:10;;;;;;;6.68;2.40;;;10.50;99.90;;;;;;5083599;28;20028;-67
2022/11/06 08:42:36;;;;;;;8.13;2.08;;;10.50;99.90;;;;;;5077444;28;20056;-66
2022/11/06 08:45:01;;;;;;;8.50;2.08;;;10.50;99.90;;;;;;5054886;28;20036;-65
2022/11/06 08:47:27;;;;;;;5.85;2.05;;;10.50;99.90;;;;;;5082894;28;20476;-66
2022/11/06 08:49:54;;;;;;;6.15;2.17;;;10.60;99.90;;;;;;5081933;28;20020;-66
2022/11/06 08:52:20;;;;;;;7.80;2.15;;;10.60;99.90;;;;;;5079828;28;20076;-66
2022/11/06 08:54:46;;;;;;;7.22;2.25;;;10.60;99.90;;;;;;5062223;28;20060;-66
2022/11/06 08:57:11;;;;;;;6.20;1.95;;;10.60;99.90;;;;;;5076210;28;20020;-66
2022/11/06 08:59:37;;;;;;;7.72;2.20;;;10.60;99.90;;;;;;5060460;28;20060;-66
2022/11/06 09:02:02;;;;;;;7.25;2.15;;;10.60;99.90;;;;;;5079296;28;20166;-66
2022/11/06 09:04:28;;;;;;;9.05;2.35;;;10.70;99.90;;;;;;5089124;28;20035;-66
2022/11/06 09:06:56;;;;;;;7.22;1.90;;;10.70;99.90;;;;;;5084264;28;20028;-66
2022/11/06 09:09:22;;;;;;;6.30;1.85;;;10.80;99.90;;;;;;5060355;28;20056;-65
2022/11/06 09:11:47;;;;;;;7.95;2.25;;;10.70;99.90;;;;;;5080467;28;20068;-66
2022/11/06 09:14:13;;;;;;;5.95;1.90;;;10.70;99.90;;;;;;5059776;28;20105;-66
2022/11/06 09:16:38;;;;;;;8.25;2.15;;;10.80;99.90;;;;;;5081063;28;20652;-66
2022/11/06 09:19:04;;;;;;;6.15;2.50;;;10.80;99.90;;;;;;5079290;28;21053;-66
2022/11/06 09:21:30;;;;;;;8.93;2.50;;;10.90;99.90;;;;;;5061129;28;20510;-66
2022/11/06 09:23:55;;;;;;;7.15;2.22;;;11.00;99.90;;;;;;5078946;28;20115;-65
2022/11/06 09:26:21;;;;;;;9.63;2.25;;;11.20;99.90;;;;;;5080362;28;20038;-66
2022/11/06 09:28:46;;;;;;;7.18;2.28;;;11.20;99.90;;;;;;5079174;28;20431;-66
2022/11/06 09:31:12;;;;;;;7.47;2.40;;;11.20;99.90;;;;;;5078763;28;20491;-65
2022/11/06 09:33:37;;;;;;;7.60;2.25;;;11.30;99.90;;;;;;5060487;28;20570;-66
2022/11/06 09:36:06;;;;;;;4.50;2.13;;;11.30;99.90;;;;;;5077934;28;20039;-66
2022/11/06 09:38:32;;;;;;;9.27;2.58;;;11.40;99.90;;;;;;5083956;28;20039;-66
2022/11/06 09:41:02;;;;;;;6.63;2.15;;;11.50;99.90;;;;;;5083945;28;20089;-66
2022/11/06 09:43:46;;;;;;;5.78;2.15;;;11.50;99.90;;;;;;5077646;28;20043;-66
2022/11/06 09:46:41;;;;;;;9.75;2.58;;;11.60;99.90;;;;;;5079355;28;20053;-65
2022/11/06 09:49:36;;;;;;;11.13;4.70;;;11.50;99.90;;;;;;5060068;28;20463;-66
2022/11/06 09:52:12;;;;;;;16.35;6.72;;;11.70;99.90;;;;;;5078292;28;20052;-65
2022/11/06 09:54:53;;;;;;;11.90;2.72;;;11.70;99.90;;;;;;5078399;28;20082;-66
2022/11/06 09:57:26;;;;;;;9.50;3.72;;;11.70;99.90;;;;;;5079012;28;20508;-66
2022/11/06 09:59:52;;;;;;;6.63;2.70;;;11.70;99.90;;;;;;5056402;28;20115;-66
2022/11/06 10:02:30;;;;;;;5.50;2.60;;;11.80;99.90;;;;;;5078767;28;20130;-66
2022/11/06 10:05:28;;;;;;;11.40;2.53;;;11.80;99.90;;;;;;5077933;28;20105;-65
2022/11/06 10:08:00;;;;;;;7.78;2.38;;;11.80;99.90;;;;;;5075506;28;20126;-66
2022/11/06 10:10:53;;;;;;;9.00;2.75;;;11.90;99.90;;;;;;5075208;28;20044;-66
2022/11/06 10:13:33;;;;;;;6.60;2.20;;;12.00;99.90;;;;;;5078030;28;20051;-66
2022/11/06 10:16:22;;;;;;;7.88;2.50;;;12.10;99.90;;;;;;5076530;28;20040;-66
2022/11/06 10:19:02;;;;;;;8.70;2.40;;;12.00;99.90;;;;;;5078942;28;20084;-66
2022/11/06 10:21:43;;;;;;;6.80;2.30;;;12.00;99.90;;;;;;5076076;28;20064;-65
2022/11/06 10:24:30;;;;;;;6.20;2.22;;;12.10;99.90;;;;;;5076915;28;20462;-66
2022/11/06 10:26:56;;;;;;;6.38;2.42;;;12.20;99.90;;;;;;5078103;28;20016;-66
2022/11/06 10:29:51;;;;;;;9.80;2.83;;;12.20;99.90;;;;;;5080757;28;20040;-66
2022/11/06 10:32:44;;;;;;;8.68;2.35;;;12.20;99.90;;;;;;5079255;28;20032;-66
2022/11/06 10:35:21;;;;;;;7.38;2.42;;;12.20;99.90;;;;;;5076491;28;20873;-66
2022/11/06 10:38:11;;;;;;;4.63;2.30;;;12.20;99.90;;;;;;5058240;28;20081;-66
2022/11/06 10:40:37;;;;;;;7.80;2.45;;;12.20;99.90;;;;;;5077026;28;20047;-66
2022/11/06 10:43:45;;;;;;;9.25;2.25;;;12.30;99.90;;;;;;5077712;28;20103;-66
2022/11/06 10:46:52;;;;;;;7.20;2.15;;;12.20;99.90;;;;;;5077017;28;20032;-66
2022/11/06 10:49:29;;;;;;;7.25;2.60;;;12.20;99.90;;;;;;5077533;28;20051;-66
2022/11/06 10:52:31;;;;;;;7.78;2.53;;;12.20;99.90;;;;;;5076581;28;20383;-66
2022/11/06 10:55:12;;;;;;;6.95;2.53;;;12.20;99.90;;;;;;5069202;28;20039;-66
2022/11/06 10:57:37;;;;;;;6.32;2.33;;;12.20;99.90;;;;;;5079329;28;20020;-66
2022/11/06 11:00:04;;;;;;;6.22;2.45;;;12.30;99.90;;;;;;5075307;28;20089;-67
2022/11/06 11:02:34;;;;;;;8.18;2.50;;;12.30;99.90;;;;;;5048483;28;20032;-66
2022/11/06 11:05:00;;;;;;;8.98;2.40;;;12.30;99.90;;;;;;5078475;28;20040;-66
2022/11/06 11:07:30;;;;;;;8.35;2.53;;;12.30;99.90;;;;;;5077761;28;20158;-66
2022/11/06 11:09:55;;;;;;;6.80;2.42;;;12.40;99.90;;;;;;5058994;28;20112;-66
2022/11/06 11:12:29;;;;;;;9.00;2.78;;;12.40;99.90;;;;;;5079448;28;20726;-66
2022/11/06 11:15:14;;;;;;;7.38;2.58;;;12.40;99.90;;;;;;5079378;28;20132;-66
2022/11/06 11:17:41;;;;;;;8.00;2.60;;;12.30;99.90;;;;;;5080451;28;20503;-66
2022/11/06 11:20:30;;;;;;;7.03;2.30;;;12.40;99.90;;;;;;5077956;28;20484;-66
2022/11/06 11:23:16;;;;;;;9.93;3.03;;;12.50;99.90;;;;;;5080785;28;20051;-66
2022/11/06 11:25:53;;;;;;;6.88;2.40;;;12.50;99.90;;;;;;5080226;28;20432;-66
2022/11/06 11:28:29;;;;;;;7.93;2.33;;;12.50;99.90;;;;;;5064798;28;20035;-66
2022/11/06 11:31:03;;;;;;;8.52;3.03;;;12.50;99.90;;;;;;5081833;28;20024;-66
2022/11/06 11:33:28;;;;;;;7.72;2.40;;;12.40;99.90;;;;;;5079595;28;20032;-66
2022/11/06 11:35:54;;;;;;;7.55;2.40;;;12.40;99.90;;;;;;5062661;28;21444;-66
2022/11/06 11:38:21;;;;;;;10.00;2.88;;;12.40;99.90;;;;;;5078293;28;20495;-66
2022/11/06 11:40:47;;;;;;;4.97;2.35;;;12.40;99.90;;;;;;5088415;28;20024;-66
2022/11/06 11:43:25;;;;;;;9.45;2.25;;;12.50;99.90;;;;;;5088745;28;20048;-66
2022/11/06 11:46:08;;;;;;;6.18;2.60;;;12.40;99.90;;;;;;5082542;28;20139;-66
2022/11/06 11:48:50;;;;;;;;;;;12.40;99.90;;;;;;5084011;28;20024;-66
2022/11/06 11:51:27;;;;;;;6.35;2.42;;;12.50;99.90;;;;;;5083707;28;19962;-66
2022/11/06 11:54:01;;;;;;;9.32;2.38;;;12.40;99.90;;;;;;5085804;28;20047;-66
2022/11/06 11:56:30;;;;;;;6.70;2.53;;;12.40;99.90;;;;;;5082814;28;20039;-66
2022/11/06 11:58:59;;;;;;;6.20;2.78;;;12.50;99.90;;;;;;5081036;28;20138;-66
2022/11/06 12:01:38;;;;;;;8.27;2.72;;;12.40;99.90;;;;;;5084783;28;20047;-66
2022/11/06 12:04:16;;;;;;;7.57;2.83;;;12.50;99.90;;;;;;5083834;28;20056;-66
2022/11/06 12:07:03;;;;;;;5.55;2.70;;;12.50;99.90;;;;;;5062998;28;20028;-66
2022/11/06 12:09:33;;;;;;;8.75;2.92;;;12.60;99.90;;;;;;5086393;28;20063;-66
2022/11/06 12:12:00;;;;;;;6.15;2.45;;;12.70;99.90;;;;;;5082006;28;20123;-66
2022/11/06 12:14:28;;;;;;;7.80;2.60;;;12.70;99.90;;;;;;5081072;28;20086;-65
2022/11/06 12:17:04;;;;;;;7.15;2.58;;;12.70;99.90;;;;;;5080930;28;20028;-66
2022/11/06 12:19:32;;;;;;;6.97;2.17;;;12.70;99.90;;;;;;5088308;28;20035;-66
2022/11/06 12:22:04;;;;;;;10.55;2.75;;;12.70;99.90;;;;;;5086125;28;20027;-66
2022/11/06 12:24:42;;;;;;;7.72;2.97;;;12.70;99.90;;;;;;5085138;28;20043;-66
2022/11/06 12:27:20;;;;;;;7.63;2.92;;;12.60;99.90;;;;;;5062096;28;20287;-65
2022/11/06 12:30:03;;;;;;;5.70;2.67;;;12.60;99.90;;;;;;5079341;28;20040;-65
2022/11/06 12:32:38;;;;;;;8.25;2.58;;;12.50;99.90;;;;;;5078780;28;20051;-65
2022/11/06 12:35:25;;;;;;;13.48;2.75;;;12.60;99.90;;;;;;5087713;28;20031;-65
2022/11/06 12:38:05;;;;;;;7.53;2.70;;;12.70;99.90;;;;;;5091222;28;20032;-66
2022/11/06 12:40:37;;;;;;;8.43;2.67;;;12.60;99.90;;;;;;5080654;28;20036;-66
2022/11/06 12:43:15;;;;;;;8.38;2.90;;;12.50;99.90;;;;;;5079987;28;20379;-66
2022/11/06 12:46:09;;;;;;;7.90;2.78;;;12.40;99.90;;;;;;5075292;28;20097;-65
2022/11/06 12:48:46;;;;;;;10.63;2.70;;;12.40;99.90;;;;;;5090755;28;20065;-65
2022/11/06 12:51:20;;;;;;;6.05;2.50;;;12.40;99.90;;;;;;5090347;28;20028;-65
2022/11/06 12:54:13;;;;;;;6.57;2.45;;;12.40;99.90;;;;;;5088934;28;20028;-65
2022/11/06 12:56:53;;;;;;;7.55;2.50;;;12.40;99.90;;;;;;5083647;28;20474;-65
2022/11/06 12:59:34;;;;;;;5.32;2.63;;;12.40;99.90;;;;;;5079814;28;20046;-65
2022/11/06 13:02:23;;;;;;;7.00;2.22;;;12.40;99.90;;;;;;5081875;28;20074;-65
2022/11/06 13:05:02;;;;;;;7.88;2.50;;;12.20;99.90;;;;;;5077358;28;20068;-65
2022/11/06 13:07:47;;;;;;;8.77;2.25;;;12.30;99.90;;;;;;5081506;28;20105;-65
2022/11/06 13:10:19;;;;;;;6.50;3.10;;;12.30;99.90;;;;;;5084713;28;20685;-65
2022/11/06 13:12:58;;;;;;;12.32;6.88;;;12.50;99.90;;;;;;5088924;28;20589;-64
2022/11/06 13:15:55;;;;;;;10.70;5.30;;;12.60;99.90;;;;;;5082032;28;20044;-64
2022/11/06 13:18:29;;;;;;;11.05;4.80;;;12.50;99.90;;;;;;5064801;28;20074;-64
2022/11/06 13:20:56;;;;;;;7.93;3.22;;;12.50;99.90;;;;;;5083616;28;20463;-64
2022/11/06 13:23:33;;;;;;;6.35;2.78;;;12.60;99.90;;;;;;5078306;28;20044;-64
2022/11/06 13:26:21;;;;;;;5.70;2.58;;;12.50;99.90;;;;;;5077378;28;20446;-64
2022/11/06 13:28:56;;;;;;;6.72;3.17;;;12.40;99.90;;;;;;5078248;28;20024;-65
2022/11/06 13:31:50;;;;;;;10.77;4.30;;;12.50;99.90;;;;;;5058077;28;20101;-64